Millbrae, California
Current Conditions -  °F | °C
As of 9:56 PM on Sunday 19 Oct 2014 (Local Time) from KSFO Reporting Station
Scattered Clouds Scattered Clouds  
Wind Chill: 66°   Ceiling: Unl
Heat Index: 66°   Visibility: 10mi
Dew Point: 59°   Wind: 3mph
Humidity: 78%   Direction: 290°WNW
Pressure: 29.9"   Gusts: NA
Location:  37.6°N, 122.39°W
Report Text: KSFO 200456Z 29003KT 10SM FEW013 SCT018 19/15 A2990 RMK AO2 SLP126 T01890150
Loading
Personal Weather Stations






























Interactive Weather Map
Tropical Storm Tracking
New forecast layout! Learn more

10-Day Weather Forecast

Advertisements
Track Severe Weather on mobile